Time;durP1;ratioP1;P1;durP2;ratioP2;P2;SDS_P1;SDS_P2;PMS_P1;PMS_P2;Temp;Humidity;BMP_temperature;BMP_pressure;BME280_temperature;BME280_humidity;BME280_pressure;Samples;Min_cycle;Max_cycle;Signal;HPM_P1;HPM_P2
2023/07/07 00:01:27;;;;;;;4.80;2.90;;;;;;;;;;5070817;28;20237;-52
2023/07/07 00:03:53;;;;;;;3.20;2.90;;;;;;;;;;5071137;28;20231;-54
2023/07/07 00:06:21;;;;;;;6.27;3.13;;;;;;;;;;5070673;28;20211;-56
2023/07/07 00:08:47;;;;;;;5.47;3.40;;;;;;;;;;5071062;28;20562;-54
2023/07/07 00:11:13;;;;;;;4.97;3.00;;;;;;;;;;5071019;28;20192;-55
2023/07/07 00:13:41;;;;;;;4.27;3.30;;;;;;;;;;5070801;28;20233;-56
2023/07/07 00:16:07;;;;;;;3.57;3.20;;;;;;;;;;5070769;28;20483;-56
2023/07/07 00:18:33;;;;;;;3.40;3.10;;;;;;;;;;5070642;28;20761;-54
2023/07/07 00:21:00;;;;;;;3.57;3.17;;;;;;;;;;5070780;28;20209;-56
2023/07/07 00:23:26;;;;;;;5.37;3.63;;;;;;;;;;5070688;28;20649;-55
2023/07/07 00:26:02;;;;;;;6.93;3.10;;;;;;;;;;5073873;28;20210;-56
2023/07/07 00:28:31;;;;;;;3.40;2.97;;;;;;;;;;5073529;28;20222;-54
2023/07/07 00:30:58;;;;;;;5.43;2.87;;;;;;;;;;5074854;28;20323;-55
2023/07/07 00:33:24;;;;;;;3.07;2.80;;;;;;;;;;5074527;28;20220;-55
2023/07/07 00:35:51;;;;;;;3.30;3.00;;;;;;;;;;5074994;28;20195;-56
2023/07/07 00:38:20;;;;;;;5.20;3.30;;;;;;;;;;5074533;28;20290;-55
2023/07/07 00:40:49;;;;;;;4.03;3.00;;;;;;;;;;5074035;28;20191;-54
2023/07/07 00:43:16;;;;;;;4.67;3.40;;;;;;;;;;5074319;28;20263;-55
2023/07/07 00:45:42;;;;;;;6.13;3.10;;;;;;;;;;5074618;28;20195;-55
2023/07/07 00:48:12;;;;;;;4.97;3.40;;;;;;;;;;5074387;28;20345;-54
2023/07/07 00:50:40;;;;;;;3.60;3.13;;;;;;;;;;5074362;28;20702;-54
2023/07/07 00:53:05;;;;;;;3.63;3.00;;;;;;;;;;5074306;28;20195;-54
2023/07/07 00:55:34;;;;;;;5.43;3.57;;;;;;;;;;5074384;28;20203;-55
2023/07/07 00:58:02;;;;;;;4.37;3.47;;;;;;;;;;5074256;28;20215;-55
2023/07/07 01:00:28;;;;;;;3.40;3.10;;;;;;;;;;5074163;28;20426;-55
2023/07/07 01:02:56;;;;;;;4.30;3.43;;;;;;;;;;5074228;28;20187;-54
2023/07/07 01:05:24;;;;;;;5.10;3.67;;;;;;;;;;5074005;28;20228;-55
2023/07/07 01:07:51;;;;;;;4.03;3.17;;;;;;;;;;5074244;28;20677;-55
2023/07/07 01:10:21;;;;;;;3.40;3.07;;;;;;;;;;5073815;28;20227;-55
2023/07/07 01:12:47;;;;;;;3.73;3.30;;;;;;;;;;5074018;28;20206;-55
2023/07/07 01:15:13;;;;;;;4.20;3.07;;;;;;;;;;5073900;28;20207;-55
2023/07/07 01:17:44;;;;;;;4.27;3.30;;;;;;;;;;5074034;28;20207;-55
2023/07/07 01:20:18;;;;;;;4.77;3.33;;;;;;;;;;5073895;28;20191;-55
2023/07/07 01:22:55;;;;;;;3.70;3.40;;;;;;;;;;5073886;28;20669;-55
2023/07/07 01:25:27;;;;;;;4.13;3.70;;;;;;;;;;5073814;28;20274;-55
2023/07/07 01:28:00;;;;;;;3.50;3.20;;;;;;;;;;5073988;28;20203;-55
2023/07/07 01:30:32;;;;;;;4.30;3.90;;;;;;;;;;5073534;28;20618;-55
2023/07/07 01:33:00;;;;;;;3.50;3.20;;;;;;;;;;5073556;28;20578;-55
2023/07/07 01:35:26;;;;;;;3.83;3.43;;;;;;;;;;5073254;28;20202;-55
2023/07/07 01:37:54;;;;;;;6.57;3.90;;;;;;;;;;5073681;28;20206;-54
2023/07/07 01:40:20;;;;;;;5.20;3.80;;;;;;;;;;5073346;28;20195;-55
2023/07/07 01:42:51;;;;;;;3.83;3.43;;;;;;;;;;5073346;28;20250;-54
2023/07/07 01:45:20;;;;;;;4.23;3.83;;;;;;;;;;5073386;28;20199;-54
2023/07/07 01:47:51;;;;;;;4.37;3.40;;;;;;;;;;5073346;28;20199;-55
2023/07/07 01:50:20;;;;;;;4.00;3.20;;;;;;;;;;5073296;28;20223;-55
2023/07/07 01:52:47;;;;;;;4.20;3.43;;;;;;;;;;5073389;28;20210;-55
2023/07/07 01:55:15;;;;;;;3.77;3.47;;;;;;;;;;5073499;28;20208;-54
2023/07/07 01:57:43;;;;;;;4.43;3.73;;;;;;;;;;5073215;28;20194;-54
2023/07/07 02:00:09;;;;;;;3.67;3.37;;;;;;;;;;5072987;28;20202;-54
2023/07/07 02:02:36;;;;;;;4.97;4.07;;;;;;;;;;5073126;28;20204;-54
2023/07/07 02:05:03;;;;;;;4.10;3.80;;;;;;;;;;5073212;28;20211;-54
2023/07/07 02:07:29;;;;;;;4.20;3.80;;;;;;;;;;5072932;28;20217;-54
2023/07/07 02:09:55;;;;;;;5.70;4.20;;;;;;;;;;5072993;28;20215;-54
2023/07/07 02:12:21;;;;;;;4.27;3.93;;;;;;;;;;5072737;28;20682;-55
2023/07/07 02:14:47;;;;;;;4.10;3.70;;;;;;;;;;5073074;28;20195;-54
2023/07/07 02:17:15;;;;;;;4.50;4.07;;;;;;;;;;5072651;28;20694;-55
2023/07/07 02:19:41;;;;;;;5.43;3.87;;;;;;;;;;5072821;28;20199;-55
2023/07/07 02:22:09;;;;;;;3.80;3.47;;;;;;;;;;5072711;28;20252;-55
2023/07/07 02:24:35;;;;;;;4.67;3.70;;;;;;;;;;5072591;28;20199;-54
2023/07/07 02:27:01;;;;;;;4.97;4.47;;;;;;;;;;5072614;28;20236;-54
2023/07/07 02:29:27;;;;;;;4.70;4.20;;;;;;;;;;5072575;28;20242;-54
2023/07/07 02:31:53;;;;;;;5.77;4.13;;;;;;;;;;5072516;28;20605;-54
2023/07/07 02:34:19;;;;;;;5.47;4.47;;;;;;;;;;5072446;28;20195;-53
2023/07/07 02:36:45;;;;;;;5.10;4.57;;;;;;;;;;5072398;28;20586;-54
2023/07/07 02:39:14;;;;;;;3.90;3.57;;;;;;;;;;5072362;28;20199;-54
2023/07/07 02:41:40;;;;;;;4.50;4.10;;;;;;;;;;5072089;28;20203;-54
2023/07/07 02:44:06;;;;;;;4.87;4.10;;;;;;;;;;5072362;28;20241;-54
2023/07/07 02:46:32;;;;;;;7.37;4.17;;;;;;;;;;5072013;28;20207;-54
2023/07/07 02:48:58;;;;;;;4.80;4.03;;;;;;;;;;5071657;28;20218;-54
2023/07/07 02:51:24;;;;;;;4.77;4.10;;;;;;;;;;5072121;28;20203;-54
2023/07/07 02:53:50;;;;;;;5.10;3.87;;;;;;;;;;5072171;28;20569;-54
2023/07/07 02:56:17;;;;;;;5.37;4.20;;;;;;;;;;5072051;28;20673;-54
2023/07/07 02:58:43;;;;;;;4.10;3.70;;;;;;;;;;5071927;28;20208;-54
2023/07/07 03:01:10;;;;;;;4.73;3.70;;;;;;;;;;5072037;28;20188;-54
2023/07/07 03:03:37;;;;;;;4.33;3.93;;;;;;;;;;5071821;28;20195;-54
2023/07/07 03:06:03;;;;;;;4.17;3.63;;;;;;;;;;5071838;28;20215;-53
2023/07/07 03:08:29;;;;;;;4.07;3.73;;;;;;;;;;5072017;28;20195;-54
2023/07/07 03:10:55;;;;;;;5.93;3.60;;;;;;;;;;5071485;28;20215;-58
2023/07/07 03:13:22;;;;;;;5.10;3.73;;;;;;;;;;5070937;28;20706;-53
2023/07/07 03:15:48;;;;;;;3.97;3.53;;;;;;;;;;5071328;28;20214;-54
2023/07/07 03:18:15;;;;;;;5.27;3.80;;;;;;;;;;5071510;28;20195;-54
2023/07/07 03:20:46;;;;;;;4.97;3.77;;;;;;;;;;5071664;28;20210;-54
2023/07/07 03:23:12;;;;;;;4.40;4.00;;;;;;;;;;5071407;28;20565;-54
2023/07/07 03:25:38;;;;;;;6.60;4.00;;;;;;;;;;5071005;28;20287;-53
2023/07/07 03:28:04;;;;;;;4.23;3.80;;;;;;;;;;5071761;28;20210;-53
2023/07/07 03:30:34;;;;;;;4.13;3.80;;;;;;;;;;5071280;28;20251;-54
2023/07/07 03:33:00;;;;;;;6.70;3.97;;;;;;;;;;5071416;28;20286;-54
2023/07/07 03:35:26;;;;;;;4.10;3.70;;;;;;;;;;5071346;28;20204;-54
2023/07/07 03:37:52;;;;;;;4.20;3.80;;;;;;;;;;5071322;28;20680;-53
2023/07/07 03:40:18;;;;;;;4.67;3.60;;;;;;;;;;5071194;28;20274;-54
2023/07/07 03:42:44;;;;;;;4.00;3.63;;;;;;;;;;5071072;28;20261;-53
2023/07/07 03:45:10;;;;;;;4.33;3.30;;;;;;;;;;5070969;28;20196;-52
2023/07/07 03:47:37;;;;;;;4.87;3.30;;;;;;;;;;5071147;28;20203;-53
2023/07/07 03:50:04;;;;;;;4.87;3.37;;;;;;;;;;5071109;28;20227;-54
2023/07/07 03:52:30;;;;;;;4.17;3.60;;;;;;;;;;5071082;28;20676;-53
2023/07/07 03:54:56;;;;;;;4.00;3.50;;;;;;;;;;5071151;28;20195;-54
2023/07/07 03:57:22;;;;;;;3.90;3.60;;;;;;;;;;5071011;28;20611;-54
2023/07/07 03:59:48;;;;;;;4.37;3.50;;;;;;;;;;5070122;28;20223;-53
2023/07/07 04:02:14;;;;;;;5.53;3.50;;;;;;;;;;5070883;28;20210;-54
2023/07/07 04:04:42;;;;;;;3.87;3.13;;;;;;;;;;5071040;28;20215;-54
2023/07/07 04:07:08;;;;;;;4.60;3.30;;;;;;;;;;5070917;28;20195;-53
2023/07/07 04:09:34;;;;;;;4.40;3.50;;;;;;;;;;5070789;28;20292;-54
2023/07/07 04:12:00;;;;;;;4.30;3.60;;;;;;;;;;5070916;28;20213;-54
2023/07/07 04:14:27;;;;;;;4.20;3.57;;;;;;;;;;5070804;28;20199;-54
2023/07/07 04:16:53;;;;;;;4.17;3.57;;;;;;;;;;5070760;28;20226;-54
2023/07/07 04:19:19;;;;;;;3.53;3.23;;;;;;;;;;5070815;28;20210;-54
2023/07/07 04:21:46;;;;;;;3.90;3.60;;;;;;;;;;5070920;28;20685;-54
2023/07/07 04:24:12;;;;;;;3.63;3.30;;;;;;;;;;5070710;28;20204;-53
2023/07/07 04:26:39;;;;;;;4.50;3.60;;;;;;;;;;5070665;28;20680;-54
2023/07/07 04:29:06;;;;;;;4.37;3.53;;;;;;;;;;5070619;28;20606;-54
2023/07/07 04:31:32;;;;;;;4.33;3.67;;;;;;;;;;5070485;28;20252;-54
2023/07/07 04:33:58;;;;;;;4.23;3.83;;;;;;;;;;5070698;28;20203;-54
2023/07/07 04:36:24;;;;;;;4.30;3.80;;;;;;;;;;5070546;28;20203;-54
2023/07/07 04:38:51;;;;;;;4.13;3.70;;;;;;;;;;5070690;28;20403;-54
2023/07/07 04:41:20;;;;;;;4.93;3.90;;;;;;;;;;5070581;28;20673;-54
2023/07/07 04:43:48;;;;;;;3.80;3.50;;;;;;;;;;5070468;28;20251;-54
2023/07/07 04:46:14;;;;;;;4.97;3.87;;;;;;;;;;5070389;28;20203;-54
2023/07/07 04:48:40;;;;;;;3.73;3.43;;;;;;;;;;5070694;28;20568;-54
2023/07/07 04:51:07;;;;;;;4.10;3.80;;;;;;;;;;5070414;28;20711;-54
2023/07/07 04:53:34;;;;;;;5.47;4.30;;;;;;;;;;5070304;28;20196;-54
2023/07/07 04:56:02;;;;;;;3.90;3.60;;;;;;;;;;5070233;28;20195;-54
2023/07/07 04:58:28;;;;;;;3.90;3.50;;;;;;;;;;5070187;28;20273;-54
2023/07/07 05:01:04;;;;;;;4.77;3.80;;;;;;;;;;5070325;28;20658;-54
2023/07/07 05:03:30;;;;;;;4.70;3.90;;;;;;;;;;5070383;28;20227;-54
2023/07/07 05:05:56;;;;;;;5.93;3.70;;;;;;;;;;5070206;28;20253;-53
2023/07/07 05:08:22;;;;;;;4.00;3.60;;;;;;;;;;5070226;28;20241;-53
2023/07/07 05:10:49;;;;;;;5.20;3.97;;;;;;;;;;5071227;28;20219;-54
2023/07/07 05:13:16;;;;;;;4.30;3.90;;;;;;;;;;5073958;28;20203;-53
2023/07/07 05:15:42;;;;;;;4.30;3.77;;;;;;;;;;5074105;28;20196;-53
2023/07/07 05:18:08;;;;;;;5.37;4.27;;;;;;;;;;5073870;28;20223;-55
2023/07/07 05:20:34;;;;;;;4.20;3.80;;;;;;;;;;5073845;28;20659;-52
2023/07/07 05:23:00;;;;;;;4.00;3.60;;;;;;;;;;5073937;28;20658;-52
2023/07/07 05:25:26;;;;;;;4.83;3.80;;;;;;;;;;5073691;28;20199;-55
2023/07/07 05:27:52;;;;;;;4.53;4.00;;;;;;;;;;5073858;28;20298;-55
2023/07/07 05:30:19;;;;;;;3.77;3.47;;;;;;;;;;5073714;28;20223;-52
2023/07/07 05:32:45;;;;;;;3.50;3.20;;;;;;;;;;5073592;28;20207;-53
2023/07/07 05:35:11;;;;;;;5.07;3.43;;;;;;;;;;5073576;28;20206;-53
2023/07/07 05:37:37;;;;;;;3.40;3.10;;;;;;;;;;5073424;28;20282;-53
2023/07/07 05:40:27;;;;;;;;;;;;;;;;;;;;;
2023/07/07 05:42:54;;;;;;;4.27;3.53;;;;;;;;;;5072124;28;20453;-53
2023/07/07 05:45:21;;;;;;;3.40;3.10;;;;;;;;;;5073469;28;20246;-53
2023/07/07 05:47:47;;;;;;;4.27;3.47;;;;;;;;;;5073265;28;20200;-53
2023/07/07 05:50:13;;;;;;;5.57;3.43;;;;;;;;;;5073160;28;20724;-53
2023/07/07 05:52:39;;;;;;;3.87;3.10;;;;;;;;;;5073234;28;20211;-53
2023/07/07 05:55:06;;;;;;;5.63;4.30;;;;;;;;;;5073365;28;20223;-55
2023/07/07 05:57:32;;;;;;;7.50;3.27;;;;;;;;;;5073152;28;20684;-53
2023/07/07 05:59:58;;;;;;;5.27;3.43;;;;;;;;;;5073190;28;20196;-54
2023/07/07 06:02:25;;;;;;;4.03;3.10;;;;;;;;;;5072935;28;20215;-54
2023/07/07 06:04:51;;;;;;;4.17;3.23;;;;;;;;;;5072949;28;20222;-54
2023/07/07 06:07:17;;;;;;;4.20;3.60;;;;;;;;;;5072779;28;20195;-54
2023/07/07 06:09:49;;;;;;;5.27;2.90;;;;;;;;;;5072777;28;20220;-54
2023/07/07 06:12:15;;;;;;;4.90;2.90;;;;;;;;;;5072937;28;20673;-54
2023/07/07 06:14:41;;;;;;;3.03;2.73;;;;;;;;;;5072764;28;20234;-54
2023/07/07 06:17:07;;;;;;;3.83;2.80;;;;;;;;;;5071990;28;20283;-55
2023/07/07 06:19:34;;;;;;;3.97;2.47;;;;;;;;;;5071947;28;20290;-55
2023/07/07 06:22:00;;;;;;;3.13;2.83;;;;;;;;;;5072194;28;20212;-54
2023/07/07 06:24:26;;;;;;;3.30;2.60;;;;;;;;;;5072578;28;20603;-55
2023/07/07 06:26:52;;;;;;;3.17;2.20;;;;;;;;;;5072540;28;20668;-54
2023/07/07 06:29:18;;;;;;;3.63;2.83;;;;;;;;;;5072492;28;20288;-54
2023/07/07 06:31:44;;;;;;;7.47;3.20;;;;;;;;;;5072517;28;20279;-54
2023/07/07 06:34:28;;;;;;;3.50;2.50;;;;;;;;;;5072486;28;20206;-57
2023/07/07 06:36:56;;;;;;;3.93;2.70;;;;;;;;;;5072097;28;20217;-55
2023/07/07 06:39:22;;;;;;;2.87;2.00;;;;;;;;;;5072414;28;20226;-54
2023/07/07 06:41:48;;;;;;;2.83;2.37;;;;;;;;;;5072221;28;20198;-55
2023/07/07 06:44:14;;;;;;;3.03;2.50;;;;;;;;;;5072300;28;20280;-54
2023/07/07 06:46:40;;;;;;;4.60;2.60;;;;;;;;;;5071978;28;20283;-54
2023/07/07 06:49:06;;;;;;;3.33;2.40;;;;;;;;;;5072308;28;20602;-54
2023/07/07 06:51:32;;;;;;;3.30;2.50;;;;;;;;;;5072033;28;20242;-55
2023/07/07 06:53:59;;;;;;;3.07;2.27;;;;;;;;;;5072277;28;20216;-56
2023/07/07 06:56:25;;;;;;;4.30;2.47;;;;;;;;;;5071974;28;20447;-56
2023/07/07 06:58:51;;;;;;;2.40;2.10;;;;;;;;;;5072111;28;20199;-55
2023/07/07 07:01:17;;;;;;;4.10;2.43;;;;;;;;;;5071875;28;20207;-55
2023/07/07 07:03:43;;;;;;;3.50;2.30;;;;;;;;;;5072129;28;20260;-55
2023/07/07 07:06:09;;;;;;;2.77;2.00;;;;;;;;;;5071829;28;20221;-56
2023/07/07 07:08:35;;;;;;;2.57;2.10;;;;;;;;;;5071880;28;20198;-56
2023/07/07 07:11:03;;;;;;;3.87;2.10;;;;;;;;;;5071731;28;20231;-54
2023/07/07 07:13:28;;;;;;;2.43;2.10;;;;;;;;;;5071697;28;20256;-53
2023/07/07 07:15:55;;;;;;;3.10;1.87;;;;;;;;;;5071834;28;20199;-55
2023/07/07 07:18:21;;;;;;;2.90;1.80;;;;;;;;;;5071484;28;20195;-55
2023/07/07 07:20:48;;;;;;;3.07;2.10;;;;;;;;;;5071548;28;20191;-55
2023/07/07 07:23:14;;;;;;;4.63;2.00;;;;;;;;;;5071550;28;20654;-55
2023/07/07 07:25:42;;;;;;;2.70;2.00;;;;;;;;;;5071467;28;20200;-55
2023/07/07 07:28:10;;;;;;;2.33;2.07;;;;;;;;;;5071391;28;20674;-55
2023/07/07 07:30:35;;;;;;;4.23;2.27;;;;;;;;;;5071078;28;20254;-56
2023/07/07 07:33:03;;;;;;;2.97;2.10;;;;;;;;;;5071399;28;20233;-54
2023/07/07 07:35:29;;;;;;;2.50;2.03;;;;;;;;;;5071185;28;20203;-54
2023/07/07 07:37:55;;;;;;;3.13;2.20;;;;;;;;;;5071204;28;20204;-55
2023/07/07 07:40:23;;;;;;;3.10;2.30;;;;;;;;;;5071212;28;20238;-54
2023/07/07 07:42:52;;;;;;;2.77;2.00;;;;;;;;;;5066278;28;20366;-55
2023/07/07 07:45:20;;;;;;;3.57;1.87;;;;;;;;;;5066534;28;20200;-55
2023/07/07 07:47:46;;;;;;;1.90;1.80;;;;;;;;;;5071201;28;20224;-54
2023/07/07 07:50:13;;;;;;;2.37;1.90;;;;;;;;;;5070877;28;20216;-55
2023/07/07 07:52:39;;;;;;;1.73;1.63;;;;;;;;;;5070785;28;20428;-55
2023/07/07 07:55:05;;;;;;;5.53;2.10;;;;;;;;;;5071143;28;20315;-55
2023/07/07 07:57:31;;;;;;;2.00;1.80;;;;;;;;;;5070646;28;20196;-54
2023/07/07 07:59:57;;;;;;;1.77;1.63;;;;;;;;;;5071015;28;20663;-55
2023/07/07 08:02:24;;;;;;;2.47;1.70;;;;;;;;;;5070833;28;20196;-55
2023/07/07 08:04:50;;;;;;;2.63;1.93;;;;;;;;;;5070946;28;20711;-55
2023/07/07 08:07:16;;;;;;;2.70;2.00;;;;;;;;;;5070949;28;20197;-55
2023/07/07 08:09:42;;;;;;;4.50;1.83;;;;;;;;;;5070642;28;20201;-55
2023/07/07 08:12:09;;;;;;;3.67;1.90;;;;;;;;;;5071033;28;20233;-55
2023/07/07 08:14:36;;;;;;;2.23;1.80;;;;;;;;;;5070680;28;20202;-55
2023/07/07 08:17:04;;;;;;;2.90;1.80;;;;;;;;;;5070820;28;20198;-55
2023/07/07 08:19:34;;;;;;;1.83;1.50;;;;;;;;;;5070739;28;20612;-55
2023/07/07 08:22:00;;;;;;;2.30;2.10;;;;;;;;;;5070518;28;20439;-55
2023/07/07 08:24:27;;;;;;;4.07;1.87;;;;;;;;;;5070622;28;20201;-55
2023/07/07 08:26:53;;;;;;;2.60;1.93;;;;;;;;;;5070854;28;20240;-55
2023/07/07 08:29:19;;;;;;;2.33;1.90;;;;;;;;;;5070496;28;20283;-55
2023/07/07 08:31:45;;;;;;;3.13;1.70;;;;;;;;;;5070677;28;20309;-55
2023/07/07 08:34:11;;;;;;;2.97;2.10;;;;;;;;;;5070320;28;20298;-55
2023/07/07 08:36:38;;;;;;;2.30;1.40;;;;;;;;;;5070483;28;20201;-55
2023/07/07 08:39:09;;;;;;;2.00;1.80;;;;;;;;;;5070527;28;20693;-55
2023/07/07 08:41:35;;;;;;;2.30;1.63;;;;;;;;;;5070479;28;20642;-55
2023/07/07 08:44:01;;;;;;;4.10;1.70;;;;;;;;;;5070442;28;20779;-55
2023/07/07 08:46:36;;;;;;;4.50;1.60;;;;;;;;;;5072096;28;20199;-55
2023/07/07 08:49:05;;;;;;;2.83;1.73;;;;;;;;;;5074555;28;20199;-55
2023/07/07 08:51:34;;;;;;;2.60;1.70;;;;;;;;;;5073983;28;20215;-56
2023/07/07 08:54:08;;;;;;;2.60;1.73;;;;;;;;;;5074511;28;20246;-54
2023/07/07 08:56:35;;;;;;;2.63;1.80;;;;;;;;;;5074229;28;20234;-55
2023/07/07 08:59:09;;;;;;;2.57;1.60;;;;;;;;;;5074189;28;20201;-56
2023/07/07 09:01:41;;;;;;;2.97;1.90;;;;;;;;;;5074242;28;20795;-55
2023/07/07 09:04:15;;;;;;;2.47;1.57;;;;;;;;;;5074336;28;20650;-55
2023/07/07 09:06:46;;;;;;;3.60;1.60;;;;;;;;;;5074395;28;20232;-55
2023/07/07 09:09:17;;;;;;;2.37;1.50;;;;;;;;;;5074230;28;20201;-56
2023/07/07 09:11:50;;;;;;;3.07;1.40;;;;;;;;;;5073876;28;20238;-56
2023/07/07 09:14:16;;;;;;;2.23;1.40;;;;;;;;;;5074183;28;20208;-56
2023/07/07 09:16:43;;;;;;;5.83;1.70;;;;;;;;;;5073782;28;20205;-54
2023/07/07 09:19:12;;;;;;;2.90;1.70;;;;;;;;;;5073987;28;20208;-55
2023/07/07 09:21:41;;;;;;;3.50;1.83;;;;;;;;;;5073780;28;20191;-55
2023/07/07 09:24:17;;;;;;;2.60;1.40;;;;;;;;;;5073737;28;20310;-55
2023/07/07 09:26:45;;;;;;;3.00;1.60;;;;;;;;;;5073895;28;20201;-56
2023/07/07 09:29:16;;;;;;;3.47;1.80;;;;;;;;;;5066516;28;20208;-55
2023/07/07 09:31:42;;;;;;;2.67;1.80;;;;;;;;;;5072251;28;20225;-53
2023/07/07 09:34:10;;;;;;;3.27;1.70;;;;;;;;;;5073870;28;20250;-54
2023/07/07 09:36:37;;;;;;;2.57;1.50;;;;;;;;;;5073599;28;20202;-54
2023/07/07 09:39:12;;;;;;;4.10;1.97;;;;;;;;;;5071906;28;20387;-54
2023/07/07 09:41:42;;;;;;;3.00;1.67;;;;;;;;;;5073394;28;20285;-55
2023/07/07 09:44:26;;;;;;;2.90;1.67;;;;;;;;;;5073285;28;20202;-54
2023/07/07 09:46:57;;;;;;;2.23;1.63;;;;;;;;;;5073297;28;20622;-55
2023/07/07 09:49:26;;;;;;;2.00;1.70;;;;;;;;;;5073098;28;20204;-55
2023/07/07 09:51:55;;;;;;;4.23;2.07;;;;;;;;;;5073143;28;20236;-55
2023/07/07 09:54:22;;;;;;;2.77;1.73;;;;;;;;;;5073174;28;20288;-56
2023/07/07 09:56:50;;;;;;;1.73;1.60;;;;;;;;;;5072665;28;20249;-55
2023/07/07 09:59:20;;;;;;;1.80;1.70;;;;;;;;;;5072574;28;20202;-55
2023/07/07 10:01:49;;;;;;;3.13;1.70;;;;;;;;;;5073046;28;20187;-55
2023/07/07 10:04:16;;;;;;;2.63;1.80;;;;;;;;;;5072988;28;20210;-55
2023/07/07 10:06:47;;;;;;;2.77;1.70;;;;;;;;;;5073051;28;20226;-55
2023/07/07 10:09:14;;;;;;;2.43;1.70;;;;;;;;;;5073067;28;20209;-55
2023/07/07 10:11:41;;;;;;;2.23;1.90;;;;;;;;;;5072774;28;20292;-56
2023/07/07 10:14:10;;;;;;;3.10;1.70;;;;;;;;;;5072876;28;20209;-56
2023/07/07 10:16:46;;;;;;;3.07;1.73;;;;;;;;;;5072523;28;20202;-55
2023/07/07 10:19:13;;;;;;;3.27;1.83;;;;;;;;;;5072772;28;20275;-55
2023/07/07 10:21:39;;;;;;;2.90;2.00;;;;;;;;;;5072509;28;20206;-55
2023/07/07 10:24:05;;;;;;;2.40;1.77;;;;;;;;;;5072846;28;20202;-55
2023/07/07 10:26:31;;;;;;;2.73;1.80;;;;;;;;;;5072512;28;20202;-55
2023/07/07 10:28:58;;;;;;;4.67;2.10;;;;;;;;;;5072486;28;20244;-55
2023/07/07 10:31:25;;;;;;;2.23;1.87;;;;;;;;;;5072138;28;20705;-55
2023/07/07 10:33:58;;;;;;;4.13;1.93;;;;;;;;;;5072428;28;20606;-55
2023/07/07 10:36:25;;;;;;;3.90;1.70;;;;;;;;;;5072307;28;20720;-55
2023/07/07 10:38:53;;;;;;;2.40;1.80;;;;;;;;;;5072452;28;20201;-54
2023/07/07 10:41:19;;;;;;;2.13;1.63;;;;;;;;;;5072746;28;20197;-54
2023/07/07 10:43:45;;;;;;;4.57;1.80;;;;;;;;;;5072512;28;20732;-53
2023/07/07 10:46:12;;;;;;;2.73;1.60;;;;;;;;;;5072579;28;20224;-53
2023/07/07 10:48:43;;;;;;;2.27;1.80;;;;;;;;;;5072356;28;20202;-53
2023/07/07 10:51:15;;;;;;;2.27;1.83;;;;;;;;;;5072566;28;20234;-54
2023/07/07 10:53:51;;;;;;;5.33;1.90;;;;;;;;;;5072295;28;20211;-53
2023/07/07 10:56:22;;;;;;;3.50;2.00;;;;;;;;;;5072311;28;20317;-53
2023/07/07 10:58:56;;;;;;;2.57;1.87;;;;;;;;;;5072262;28;20195;-54
2023/07/07 11:01:27;;;;;;;3.77;2.00;;;;;;;;;;5072153;28;20722;-54
2023/07/07 11:04:03;;;;;;;2.20;1.80;;;;;;;;;;5072298;28;20222;-53
2023/07/07 11:06:36;;;;;;;1.77;1.50;;;;;;;;;;5071953;28;20281;-54
2023/07/07 11:09:09;;;;;;;2.57;1.90;;;;;;;;;;5071823;28;20205;-53
2023/07/07 11:11:36;;;;;;;2.77;1.80;;;;;;;;;;5071907;28;20228;-56
2023/07/07 11:14:09;;;;;;;2.13;1.80;;;;;;;;;;5072145;28;20199;-55
2023/07/07 11:16:39;;;;;;;2.27;1.73;;;;;;;;;;5071868;28;20706;-53
2023/07/07 11:19:15;;;;;;;1.87;1.70;;;;;;;;;;5071921;28;20202;-53
2023/07/07 11:21:47;;;;;;;2.10;1.60;;;;;;;;;;5071722;28;20628;-54
2023/07/07 11:24:17;;;;;;;4.00;1.67;;;;;;;;;;5071826;28;20206;-54
2023/07/07 11:26:48;;;;;;;3.23;1.90;;;;;;;;;;5071859;28;20256;-53
2023/07/07 11:29:18;;;;;;;3.37;2.03;;;;;;;;;;5071776;28;20661;-54
2023/07/07 11:31:52;;;;;;;4.13;1.80;;;;;;;;;;5071624;28;20243;-53
2023/07/07 11:34:28;;;;;;;1.63;1.53;;;;;;;;;;5071680;28;20837;-54
2023/07/07 11:37:02;;;;;;;1.97;1.67;;;;;;;;;;5071712;28;20646;-53
2023/07/07 11:39:35;;;;;;;1.93;1.60;;;;;;;;;;5071511;28;20206;-54
2023/07/07 11:42:09;;;;;;;2.10;1.70;;;;;;;;;;5071427;28;20246;-54
2023/07/07 11:44:42;;;;;;;3.77;1.63;;;;;;;;;;5071502;28;20210;-54
2023/07/07 11:47:13;;;;;;;2.17;1.70;;;;;;;;;;5071463;28;20679;-54
2023/07/07 11:49:49;;;;;;;2.20;1.80;;;;;;;;;;5071304;28;20209;-53
2023/07/07 11:52:22;;;;;;;2.33;1.90;;;;;;;;;;5071442;28;20662;-55
2023/07/07 11:54:54;;;;;;;2.93;1.70;;;;;;;;;;5071559;28;20217;-53
2023/07/07 11:57:31;;;;;;;1.87;1.73;;;;;;;;;;5071478;28;20292;-53
2023/07/07 12:00:13;;;;;;;2.27;1.63;;;;;;;;;;5071415;28;20197;-54
2023/07/07 12:02:41;;;;;;;2.07;1.70;;;;;;;;;;5071268;28;20196;-54
2023/07/07 12:05:12;;;;;;;2.87;1.70;;;;;;;;;;5071296;28;20268;-54
2023/07/07 12:07:42;;;;;;;3.23;1.97;;;;;;;;;;5071250;28;20200;-54
2023/07/07 12:10:14;;;;;;;3.10;1.60;;;;;;;;;;5071120;28;20687;-53
2023/07/07 12:12:42;;;;;;;6.03;2.10;;;;;;;;;;5071133;28;20500;-54
2023/07/07 12:15:12;;;;;;;3.93;1.80;;;;;;;;;;5071217;28;20650;-54
2023/07/07 12:17:40;;;;;;;1.90;1.80;;;;;;;;;;5070901;28;20207;-53
2023/07/07 12:20:10;;;;;;;2.63;1.90;;;;;;;;;;5070277;28;20660;-53
2023/07/07 12:22:40;;;;;;;3.33;1.87;;;;;;;;;;5070985;28;20245;-53
2023/07/07 12:25:15;;;;;;;2.53;1.97;;;;;;;;;;5071161;28;20278;-53
2023/07/07 12:27:42;;;;;;;3.30;1.70;;;;;;;;;;5071023;28;20215;-54
2023/07/07 12:30:13;;;;;;;2.17;1.57;;;;;;;;;;5070933;28;20572;-54
2023/07/07 12:32:39;;;;;;;2.20;1.97;;;;;;;;;;5070875;28;20204;-54
2023/07/07 12:35:07;;;;;;;2.23;1.80;;;;;;;;;;5071014;28;20209;-54
2023/07/07 12:37:34;;;;;;;2.63;1.77;;;;;;;;;;5070742;28;20201;-54
2023/07/07 12:40:05;;;;;;;3.63;1.60;;;;;;;;;;5070950;28;20205;-54
2023/07/07 12:42:32;;;;;;;2.00;1.80;;;;;;;;;;5070739;28;20252;-54
2023/07/07 12:45:07;;;;;;;2.03;1.60;;;;;;;;;;5070898;28;20200;-54
2023/07/07 12:47:36;;;;;;;5.57;1.90;;;;;;;;;;5070400;28;20226;-54
2023/07/07 12:50:03;;;;;;;2.53;1.63;;;;;;;;;;5070665;28;20195;-54
2023/07/07 12:52:34;;;;;;;2.83;1.50;;;;;;;;;;5070777;28;20249;-54
2023/07/07 12:55:05;;;;;;;2.37;1.43;;;;;;;;;;5070986;28;20286;-54
2023/07/07 12:57:33;;;;;;;1.90;1.60;;;;;;;;;;5070793;28;20202;-54
2023/07/07 13:00:14;;;;;;;2.70;1.60;;;;;;;;;;5070675;28;20327;-54
2023/07/07 13:02:55;;;;;;;2.30;1.57;;;;;;;;;;5070549;28;20209;-54
2023/07/07 13:05:23;;;;;;;1.60;1.50;;;;;;;;;;5070631;28;20219;-54
2023/07/07 13:07:58;;;;;;;3.23;1.50;;;;;;;;;;5070562;28;20202;-59
2023/07/07 13:10:34;;;;;;;1.87;1.67;;;;;;;;;;5070436;28;20299;-53
2023/07/07 13:13:17;;;;;;;2.87;1.97;;;;;;;;;;5070489;28;20197;-53
2023/07/07 13:15:43;;;;;;;2.00;1.70;;;;;;;;;;5070111;28;20205;-53
2023/07/07 13:18:11;;;;;;;3.10;1.57;;;;;;;;;;5070331;28;20202;-54
2023/07/07 13:20:40;;;;;;;2.37;1.50;;;;;;;;;;5070096;28;20199;-52
2023/07/07 13:23:10;;;;;;;2.00;1.57;;;;;;;;;;5070449;28;20281;-54
2023/07/07 13:25:37;;;;;;;2.20;1.70;;;;;;;;;;5070143;28;20207;-53
2023/07/07 13:28:04;;;;;;;1.77;1.60;;;;;;;;;;5070259;28;20217;-53
2023/07/07 13:30:33;;;;;;;2.37;2.07;;;;;;;;;;5067998;28;20779;-54
2023/07/07 13:33:00;;;;;;;3.30;1.90;;;;;;;;;;5072529;28;20196;-54
2023/07/07 13:35:26;;;;;;;2.93;1.70;;;;;;;;;;5073344;28;20203;-53
2023/07/07 13:37:56;;;;;;;2.67;1.80;;;;;;;;;;5073420;28;20230;-53
2023/07/07 13:40:22;;;;;;;2.53;1.60;;;;;;;;;;5073448;28;20248;-53
2023/07/07 13:42:51;;;;;;;1.70;1.60;;;;;;;;;;5073219;28;20231;-53
2023/07/07 13:45:18;;;;;;;1.90;1.40;;;;;;;;;;5073324;28;20264;-52
2023/07/07 13:47:46;;;;;;;1.97;1.60;;;;;;;;;;5072794;28;20201;-52
2023/07/07 13:50:13;;;;;;;4.50;1.90;;;;;;;;;;5072721;28;20211;-52
2023/07/07 13:52:42;;;;;;;2.93;1.50;;;;;;;;;;5073025;28;20257;-52
2023/07/07 13:55:11;;;;;;;3.77;2.00;;;;;;;;;;5072931;28;20794;-52
2023/07/07 13:57:38;;;;;;;2.63;1.80;;;;;;;;;;5072902;28;20286;-52
2023/07/07 14:00:05;;;;;;;1.80;1.60;;;;;;;;;;5072852;28;20212;-54
2023/07/07 14:02:31;;;;;;;2.20;1.50;;;;;;;;;;5073108;28;20488;-55
2023/07/07 14:05:00;;;;;;;2.17;1.70;;;;;;;;;;5073282;28;20217;-53
2023/07/07 14:07:27;;;;;;;2.50;1.83;;;;;;;;;;5073192;28;20211;-53
2023/07/07 14:09:53;;;;;;;2.00;1.50;;;;;;;;;;5073067;28;20202;-55
2023/07/07 14:12:22;;;;;;;3.67;1.70;;;;;;;;;;5073021;28;20720;-54
2023/07/07 14:14:49;;;;;;;4.40;1.80;;;;;;;;;;5073006;28;20261;-54
2023/07/07 14:17:17;;;;;;;4.33;1.80;;;;;;;;;;5073143;28;20270;-54
2023/07/07 14:19:49;;;;;;;2.63;1.70;;;;;;;;;;5072899;28;20835;-54
2023/07/07 14:22:17;;;;;;;1.70;1.53;;;;;;;;;;5073036;28;20200;-55
2023/07/07 14:24:43;;;;;;;4.67;1.80;;;;;;;;;;5072838;28;20657;-53
2023/07/07 14:27:12;;;;;;;2.50;1.60;;;;;;;;;;5072990;28;20299;-52
2023/07/07 14:29:39;;;;;;;2.00;1.43;;;;;;;;;;5072632;28;20193;-53
2023/07/07 14:32:07;;;;;;;2.23;1.77;;;;;;;;;;5072714;28;20220;-55
2023/07/07 14:34:44;;;;;;;3.53;1.70;;;;;;;;;;5072763;28;20227;-55
2023/07/07 14:37:16;;;;;;;2.63;1.70;;;;;;;;;;5072782;28;20574;-53
2023/07/07 14:39:48;;;;;;;3.07;1.60;;;;;;;;;;5072741;28;20202;-53
2023/07/07 14:42:18;;;;;;;2.30;1.53;;;;;;;;;;5072585;28;20965;-53
2023/07/07 14:44:45;;;;;;;1.97;1.63;;;;;;;;;;5071591;28;20700;-53
2023/07/07 14:47:14;;;;;;;2.87;1.73;;;;;;;;;;5072588;28;20195;-53
2023/07/07 14:49:40;;;;;;;3.03;1.83;;;;;;;;;;5072422;28;20217;-53